sensor_id;sensor_type;location;lat;lon;timestamp;P1;durP1;ratioP1;P2;durP2;ratioP2
6376;SDS011;3221;48.858;10.128;2022-10-16T00:01:26;1.67;;;1.57;;
6376;SDS011;3221;48.858;10.128;2022-10-16T00:03:55;1.70;;;1.60;;
6376;SDS011;3221;48.858;10.128;2022-10-16T00:06:23;2.03;;;1.70;;
6376;SDS011;3221;48.858;10.128;2022-10-16T00:08:51;3.57;;;1.53;;
6376;SDS011;3221;48.858;10.128;2022-10-16T00:11:20;1.50;;;1.40;;
6376;SDS011;3221;48.858;10.128;2022-10-16T00:13:54;1.83;;;1.50;;
6376;SDS011;3221;48.858;10.128;2022-10-16T00:16:23;1.57;;;1.40;;
6376;SDS011;3221;48.858;10.128;2022-10-16T00:18:50;1.80;;;1.70;;
6376;SDS011;3221;48.858;10.128;2022-10-16T00:21:19;1.77;;;1.40;;
6376;SDS011;3221;48.858;10.128;2022-10-16T00:23:52;2.23;;;1.43;;
6376;SDS011;3221;48.858;10.128;2022-10-16T00:26:20;1.50;;;1.37;;
6376;SDS011;3221;48.858;10.128;2022-10-16T00:28:48;1.60;;;1.40;;
6376;SDS011;3221;48.858;10.128;2022-10-16T00:31:17;3.37;;;1.33;;
6376;SDS011;3221;48.858;10.128;2022-10-16T00:33:46;1.83;;;1.50;;
6376;SDS011;3221;48.858;10.128;2022-10-16T00:36:14;1.73;;;1.40;;
6376;SDS011;3221;48.858;10.128;2022-10-16T00:38:43;2.37;;;1.40;;
6376;SDS011;3221;48.858;10.128;2022-10-16T00:41:14;1.40;;;1.30;;
6376;SDS011;3221;48.858;10.128;2022-10-16T00:43:47;1.47;;;1.37;;
6376;SDS011;3221;48.858;10.128;2022-10-16T00:46:17;1.40;;;1.30;;
6376;SDS011;3221;48.858;10.128;2022-10-16T00:48:57;1.63;;;1.20;;
6376;SDS011;3221;48.858;10.128;2022-10-16T00:51:35;1.50;;;1.40;;
6376;SDS011;3221;48.858;10.128;2022-10-16T00:54:10;2.80;;;1.20;;
6376;SDS011;3221;48.858;10.128;2022-10-16T00:56:44;1.60;;;1.50;;
6376;SDS011;3221;48.858;10.128;2022-10-16T00:59:32;1.53;;;1.40;;
6376;SDS011;3221;48.858;10.128;2022-10-16T01:02:05;1.50;;;1.40;;
6376;SDS011;3221;48.858;10.128;2022-10-16T01:04:41;1.40;;;1.30;;
6376;SDS011;3221;48.858;10.128;2022-10-16T01:15:23;2.07;;;1.37;;
6376;SDS011;3221;48.858;10.128;2022-10-16T01:25:44;4.10;;;1.43;;
6376;SDS011;3221;48.858;10.128;2022-10-16T01:28:24;2.57;;;1.80;;
6376;SDS011;3221;48.858;10.128;2022-10-16T01:30:57;1.63;;;1.53;;
6376;SDS011;3221;48.858;10.128;2022-10-16T01:33:36;2.23;;;1.40;;
6376;SDS011;3221;48.858;10.128;2022-10-16T01:36:12;1.90;;;1.70;;
6376;SDS011;3221;48.858;10.128;2022-10-16T01:38:42;2.27;;;1.63;;
6376;SDS011;3221;48.858;10.128;2022-10-16T01:41:12;2.07;;;1.63;;
6376;SDS011;3221;48.858;10.128;2022-10-16T01:43:42;1.93;;;1.40;;
6376;SDS011;3221;48.858;10.128;2022-10-16T01:46:13;2.07;;;1.60;;
6376;SDS011;3221;48.858;10.128;2022-10-16T01:48:43;3.97;;;1.80;;
6376;SDS011;3221;48.858;10.128;2022-10-16T01:51:10;3.27;;;1.60;;
6376;SDS011;3221;48.858;10.128;2022-10-16T01:53:40;1.93;;;1.70;;
6376;SDS011;3221;48.858;10.128;2022-10-16T01:56:09;4.57;;;1.60;;
6376;SDS011;3221;48.858;10.128;2022-10-16T01:58:40;1.60;;;1.50;;
6376;SDS011;3221;48.858;10.128;2022-10-16T02:01:12;1.70;;;1.60;;
6376;SDS011;3221;48.858;10.128;2022-10-16T02:03:43;2.90;;;1.47;;
6376;SDS011;3221;48.858;10.128;2022-10-16T02:06:12;1.43;;;1.33;;
6376;SDS011;3221;48.858;10.128;2022-10-16T02:08:39;2.10;;;1.63;;
6376;SDS011;3221;48.858;10.128;2022-10-16T02:11:10;1.83;;;1.50;;
6376;SDS011;3221;48.858;10.128;2022-10-16T02:16:17;2.13;;;1.60;;
6376;SDS011;3221;48.858;10.128;2022-10-16T02:18:44;3.27;;;1.80;;
6376;SDS011;3221;48.858;10.128;2022-10-16T02:23:54;2.97;;;1.57;;
6376;SDS011;3221;48.858;10.128;2022-10-16T02:26:42;1.80;;;1.67;;
6376;SDS011;3221;48.858;10.128;2022-10-16T02:29:16;4.50;;;1.77;;
6376;SDS011;3221;48.858;10.128;2022-10-16T02:31:46;2.73;;;1.70;;
6376;SDS011;3221;48.858;10.128;2022-10-16T02:34:17;1.80;;;1.53;;
6376;SDS011;3221;48.858;10.128;2022-10-16T02:36:47;2.17;;;1.70;;
6376;SDS011;3221;48.858;10.128;2022-10-16T02:39:16;2.33;;;1.70;;
6376;SDS011;3221;48.858;10.128;2022-10-16T02:41:44;1.50;;;1.40;;
6376;SDS011;3221;48.858;10.128;2022-10-16T02:44:11;2.50;;;1.70;;
6376;SDS011;3221;48.858;10.128;2022-10-16T02:46:38;7.20;;;1.60;;
6376;SDS011;3221;48.858;10.128;2022-10-16T02:49:05;2.13;;;1.50;;
6376;SDS011;3221;48.858;10.128;2022-10-16T02:51:32;1.73;;;1.40;;
6376;SDS011;3221;48.858;10.128;2022-10-16T02:53:59;2.00;;;1.33;;
6376;SDS011;3221;48.858;10.128;2022-10-16T02:56:25;2.53;;;1.70;;
6376;SDS011;3221;48.858;10.128;2022-10-16T02:58:52;2.73;;;1.70;;
6376;SDS011;3221;48.858;10.128;2022-10-16T03:01:19;3.33;;;1.70;;
6376;SDS011;3221;48.858;10.128;2022-10-16T03:03:46;2.37;;;1.70;;
6376;SDS011;3221;48.858;10.128;2022-10-16T03:06:13;3.10;;;1.80;;
6376;SDS011;3221;48.858;10.128;2022-10-16T03:08:40;2.73;;;1.43;;
6376;SDS011;3221;48.858;10.128;2022-10-16T03:11:07;2.33;;;1.60;;
6376;SDS011;3221;48.858;10.128;2022-10-16T03:13:34;3.70;;;1.50;;
6376;SDS011;3221;48.858;10.128;2022-10-16T03:16:02;2.73;;;1.70;;
6376;SDS011;3221;48.858;10.128;2022-10-16T03:18:29;1.67;;;1.57;;
6376;SDS011;3221;48.858;10.128;2022-10-16T03:20:56;2.43;;;1.63;;
6376;SDS011;3221;48.858;10.128;2022-10-16T03:23:22;1.70;;;1.60;;
6376;SDS011;3221;48.858;10.128;2022-10-16T03:25:49;1.77;;;1.60;;
6376;SDS011;3221;48.858;10.128;2022-10-16T03:28:16;1.70;;;1.60;;
6376;SDS011;3221;48.858;10.128;2022-10-16T03:30:43;2.20;;;1.50;;
6376;SDS011;3221;48.858;10.128;2022-10-16T03:33:10;3.33;;;1.73;;
6376;SDS011;3221;48.858;10.128;2022-10-16T03:35:37;2.17;;;1.70;;
6376;SDS011;3221;48.858;10.128;2022-10-16T03:38:04;3.20;;;1.80;;
6376;SDS011;3221;48.858;10.128;2022-10-16T03:40:31;2.53;;;1.43;;
6376;SDS011;3221;48.858;10.128;2022-10-16T03:42:58;1.50;;;1.33;;
6376;SDS011;3221;48.858;10.128;2022-10-16T03:45:25;2.83;;;1.20;;
6376;SDS011;3221;48.858;10.128;2022-10-16T03:47:53;1.30;;;1.20;;
6376;SDS011;3221;48.858;10.128;2022-10-16T03:50:20;2.37;;;1.60;;
6376;SDS011;3221;48.858;10.128;2022-10-16T03:52:47;1.73;;;1.40;;
6376;SDS011;3221;48.858;10.128;2022-10-16T03:55:13;3.20;;;1.60;;
6376;SDS011;3221;48.858;10.128;2022-10-16T03:57:40;1.67;;;1.50;;
6376;SDS011;3221;48.858;10.128;2022-10-16T04:00:07;1.50;;;1.40;;
6376;SDS011;3221;48.858;10.128;2022-10-16T04:02:38;1.70;;;1.60;;
6376;SDS011;3221;48.858;10.128;2022-10-16T04:05:05;2.33;;;1.50;;
6376;SDS011;3221;48.858;10.128;2022-10-16T04:07:32;2.50;;;1.40;;
6376;SDS011;3221;48.858;10.128;2022-10-16T04:09:59;2.30;;;1.60;;
6376;SDS011;3221;48.858;10.128;2022-10-16T04:12:26;3.87;;;1.80;;
6376;SDS011;3221;48.858;10.128;2022-10-16T04:14:54;1.60;;;1.50;;
6376;SDS011;3221;48.858;10.128;2022-10-16T04:17:20;3.40;;;1.70;;
6376;SDS011;3221;48.858;10.128;2022-10-16T04:19:47;1.70;;;1.60;;
6376;SDS011;3221;48.858;10.128;2022-10-16T04:22:14;1.93;;;1.80;;
6376;SDS011;3221;48.858;10.128;2022-10-16T04:24:41;1.80;;;1.60;;
6376;SDS011;3221;48.858;10.128;2022-10-16T04:27:08;3.10;;;2.20;;
6376;SDS011;3221;48.858;10.128;2022-10-16T04:29:35;2.20;;;1.83;;
6376;SDS011;3221;48.858;10.128;2022-10-16T04:32:02;2.30;;;1.70;;
6376;SDS011;3221;48.858;10.128;2022-10-16T04:34:29;2.93;;;1.83;;
6376;SDS011;3221;48.858;10.128;2022-10-16T04:36:56;2.53;;;1.80;;
6376;SDS011;3221;48.858;10.128;2022-10-16T04:39:23;4.27;;;1.93;;
6376;SDS011;3221;48.858;10.128;2022-10-16T04:41:50;2.47;;;1.80;;
6376;SDS011;3221;48.858;10.128;2022-10-16T04:44:17;1.90;;;1.80;;
6376;SDS011;3221;48.858;10.128;2022-10-16T04:46:43;2.30;;;1.97;;
6376;SDS011;3221;48.858;10.128;2022-10-16T04:49:11;1.90;;;1.80;;
6376;SDS011;3221;48.858;10.128;2022-10-16T04:51:38;2.23;;;2.03;;
6376;SDS011;3221;48.858;10.128;2022-10-16T04:54:05;2.57;;;1.80;;
6376;SDS011;3221;48.858;10.128;2022-10-16T04:56:32;2.23;;;2.00;;
6376;SDS011;3221;48.858;10.128;2022-10-16T04:59:06;3.30;;;1.77;;
6376;SDS011;3221;48.858;10.128;2022-10-16T05:01:33;1.90;;;1.70;;
6376;SDS011;3221;48.858;10.128;2022-10-16T05:04:00;3.77;;;1.83;;
6376;SDS011;3221;48.858;10.128;2022-10-16T05:06:27;2.13;;;2.00;;
6376;SDS011;3221;48.858;10.128;2022-10-16T05:08:54;3.10;;;1.93;;
6376;SDS011;3221;48.858;10.128;2022-10-16T05:11:21;2.93;;;2.40;;
6376;SDS011;3221;48.858;10.128;2022-10-16T05:13:48;5.63;;;2.30;;
6376;SDS011;3221;48.858;10.128;2022-10-16T05:16:20;2.60;;;2.13;;
6376;SDS011;3221;48.858;10.128;2022-10-16T05:18:52;2.40;;;2.20;;
6376;SDS011;3221;48.858;10.128;2022-10-16T05:21:29;3.60;;;2.40;;
6376;SDS011;3221;48.858;10.128;2022-10-16T05:23:56;7.07;;;2.50;;
6376;SDS011;3221;48.858;10.128;2022-10-16T05:26:23;2.40;;;2.20;;
6376;SDS011;3221;48.858;10.128;2022-10-16T05:28:50;2.20;;;2.00;;
6376;SDS011;3221;48.858;10.128;2022-10-16T05:31:17;2.20;;;2.00;;
6376;SDS011;3221;48.858;10.128;2022-10-16T05:33:48;2.97;;;1.97;;
6376;SDS011;3221;48.858;10.128;2022-10-16T05:36:15;2.37;;;2.07;;
6376;SDS011;3221;48.858;10.128;2022-10-16T05:38:42;2.20;;;1.97;;
6376;SDS011;3221;48.858;10.128;2022-10-16T05:41:09;2.40;;;2.20;;
6376;SDS011;3221;48.858;10.128;2022-10-16T05:43:36;2.40;;;2.07;;
6376;SDS011;3221;48.858;10.128;2022-10-16T05:46:04;2.07;;;1.97;;
6376;SDS011;3221;48.858;10.128;2022-10-16T05:48:31;2.23;;;2.00;;
6376;SDS011;3221;48.858;10.128;2022-10-16T05:51:06;2.50;;;2.00;;
6376;SDS011;3221;48.858;10.128;2022-10-16T05:53:36;3.40;;;1.90;;
6376;SDS011;3221;48.858;10.128;2022-10-16T05:56:05;2.30;;;1.70;;
6376;SDS011;3221;48.858;10.128;2022-10-16T05:58:34;3.60;;;2.00;;
6376;SDS011;3221;48.858;10.128;2022-10-16T06:01:04;2.30;;;2.10;;
6376;SDS011;3221;48.858;10.128;2022-10-16T06:03:33;2.10;;;2.00;;
6376;SDS011;3221;48.858;10.128;2022-10-16T06:06:11;2.17;;;1.97;;
6376;SDS011;3221;48.858;10.128;2022-10-16T06:08:42;2.10;;;1.90;;
6376;SDS011;3221;48.858;10.128;2022-10-16T06:11:12;2.33;;;2.03;;
6376;SDS011;3221;48.858;10.128;2022-10-16T06:13:41;2.33;;;2.10;;
6376;SDS011;3221;48.858;10.128;2022-10-16T06:16:09;4.03;;;1.80;;
6376;SDS011;3221;48.858;10.128;2022-10-16T06:18:37;2.63;;;1.90;;
6376;SDS011;3221;48.858;10.128;2022-10-16T06:21:08;2.53;;;1.77;;
6376;SDS011;3221;48.858;10.128;2022-10-16T06:23:36;3.30;;;1.60;;
6376;SDS011;3221;48.858;10.128;2022-10-16T06:26:04;3.00;;;1.90;;
6376;SDS011;3221;48.858;10.128;2022-10-16T06:28:35;1.90;;;1.80;;
6376;SDS011;3221;48.858;10.128;2022-10-16T06:31:03;3.17;;;1.70;;
6376;SDS011;3221;48.858;10.128;2022-10-16T06:33:34;4.67;;;1.77;;
6376;SDS011;3221;48.858;10.128;2022-10-16T06:36:06;1.70;;;1.60;;
6376;SDS011;3221;48.858;10.128;2022-10-16T06:38:35;3.23;;;1.70;;
6376;SDS011;3221;48.858;10.128;2022-10-16T06:41:03;1.70;;;1.60;;
6376;SDS011;3221;48.858;10.128;2022-10-16T06:43:31;2.43;;;1.80;;
6376;SDS011;3221;48.858;10.128;2022-10-16T06:45:59;1.70;;;1.60;;
6376;SDS011;3221;48.858;10.128;2022-10-16T06:48:27;3.87;;;1.77;;
6376;SDS011;3221;48.858;10.128;2022-10-16T06:51:05;4.27;;;1.63;;
6376;SDS011;3221;48.858;10.128;2022-10-16T06:53:35;4.10;;;1.80;;
6376;SDS011;3221;48.858;10.128;2022-10-16T06:56:23;2.00;;;1.60;;
6376;SDS011;3221;48.858;10.128;2022-10-16T06:58:52;3.07;;;2.00;;
6376;SDS011;3221;48.858;10.128;2022-10-16T07:01:21;2.00;;;1.80;;
6376;SDS011;3221;48.858;10.128;2022-10-16T07:03:49;2.00;;;1.80;;
6376;SDS011;3221;48.858;10.128;2022-10-16T07:06:18;2.50;;;1.80;;
6376;SDS011;3221;48.858;10.128;2022-10-16T07:08:46;2.33;;;2.00;;
6376;SDS011;3221;48.858;10.128;2022-10-16T07:11:14;2.30;;;1.70;;
6376;SDS011;3221;48.858;10.128;2022-10-16T07:13:44;2.17;;;1.80;;
6376;SDS011;3221;48.858;10.128;2022-10-16T07:16:20;1.93;;;1.70;;
6376;SDS011;3221;48.858;10.128;2022-10-16T07:21:28;3.33;;;1.80;;
6376;SDS011;3221;48.858;10.128;2022-10-16T07:23:58;3.27;;;1.77;;
6376;SDS011;3221;48.858;10.128;2022-10-16T07:26:28;3.67;;;1.90;;
6376;SDS011;3221;48.858;10.128;2022-10-16T07:28:58;3.10;;;1.83;;
6376;SDS011;3221;48.858;10.128;2022-10-16T07:31:26;4.77;;;1.73;;
6376;SDS011;3221;48.858;10.128;2022-10-16T07:33:54;3.97;;;1.63;;
6376;SDS011;3221;48.858;10.128;2022-10-16T07:36:21;2.90;;;1.60;;
6376;SDS011;3221;48.858;10.128;2022-10-16T07:38:48;4.30;;;1.80;;
6376;SDS011;3221;48.858;10.128;2022-10-16T07:41:19;2.30;;;1.60;;
6376;SDS011;3221;48.858;10.128;2022-10-16T07:43:46;2.20;;;1.57;;
6376;SDS011;3221;48.858;10.128;2022-10-16T07:46:18;3.47;;;2.30;;
6376;SDS011;3221;48.858;10.128;2022-10-16T07:48:46;4.77;;;1.90;;
6376;SDS011;3221;48.858;10.128;2022-10-16T07:51:16;1.50;;;1.40;;
6376;SDS011;3221;48.858;10.128;2022-10-16T07:53:45;2.50;;;1.63;;
6376;SDS011;3221;48.858;10.128;2022-10-16T07:56:13;2.50;;;2.00;;
6376;SDS011;3221;48.858;10.128;2022-10-16T07:58:41;1.97;;;1.70;;
6376;SDS011;3221;48.858;10.128;2022-10-16T08:01:17;3.33;;;1.70;;
6376;SDS011;3221;48.858;10.128;2022-10-16T08:03:46;2.53;;;1.80;;
6376;SDS011;3221;48.858;10.128;2022-10-16T08:06:18;2.87;;;1.70;;
6376;SDS011;3221;48.858;10.128;2022-10-16T08:08:52;2.60;;;1.87;;
6376;SDS011;3221;48.858;10.128;2022-10-16T08:11:19;3.40;;;1.80;;
6376;SDS011;3221;48.858;10.128;2022-10-16T08:13:46;3.27;;;2.13;;
6376;SDS011;3221;48.858;10.128;2022-10-16T08:16:13;3.50;;;2.20;;
6376;SDS011;3221;48.858;10.128;2022-10-16T08:18:40;1.70;;;1.60;;
6376;SDS011;3221;48.858;10.128;2022-10-16T08:21:08;2.57;;;1.73;;
6376;SDS011;3221;48.858;10.128;2022-10-16T08:23:46;2.80;;;1.73;;
6376;SDS011;3221;48.858;10.128;2022-10-16T08:26:23;2.20;;;1.70;;
6376;SDS011;3221;48.858;10.128;2022-10-16T08:28:50;2.87;;;2.00;;
6376;SDS011;3221;48.858;10.128;2022-10-16T08:31:18;1.97;;;1.87;;
6376;SDS011;3221;48.858;10.128;2022-10-16T08:33:45;2.10;;;1.80;;
6376;SDS011;3221;48.858;10.128;2022-10-16T08:36:13;2.20;;;2.00;;
6376;SDS011;3221;48.858;10.128;2022-10-16T08:38:41;2.33;;;1.97;;
6376;SDS011;3221;48.858;10.128;2022-10-16T08:41:22;2.00;;;1.90;;
6376;SDS011;3221;48.858;10.128;2022-10-16T08:48:59;2.10;;;1.60;;
6376;SDS011;3221;48.858;10.128;2022-10-16T08:51:32;1.93;;;1.80;;
6376;SDS011;3221;48.858;10.128;2022-10-16T08:54:15;1.80;;;1.70;;
6376;SDS011;3221;48.858;10.128;2022-10-16T08:56:54;3.27;;;1.93;;
6376;SDS011;3221;48.858;10.128;2022-10-16T08:59:22;1.80;;;1.70;;
6376;SDS011;3221;48.858;10.128;2022-10-16T09:01:49;2.47;;;1.70;;
6376;SDS011;3221;48.858;10.128;2022-10-16T09:07:04;1.90;;;1.80;;
6376;SDS011;3221;48.858;10.128;2022-10-16T09:12:17;1.80;;;1.70;;
6376;SDS011;3221;48.858;10.128;2022-10-16T09:17:49;2.13;;;1.87;;
6376;SDS011;3221;48.858;10.128;2022-10-16T09:20:39;4.30;;;1.70;;
6376;SDS011;3221;48.858;10.128;2022-10-16T09:23:30;2.40;;;1.77;;
6376;SDS011;3221;48.858;10.128;2022-10-16T09:26:01;2.47;;;2.00;;
6376;SDS011;3221;48.858;10.128;2022-10-16T09:28:30;1.90;;;1.80;;
6376;SDS011;3221;48.858;10.128;2022-10-16T09:30:57;1.87;;;1.77;;
6376;SDS011;3221;48.858;10.128;2022-10-16T09:33:27;2.10;;;1.90;;
6376;SDS011;3221;48.858;10.128;2022-10-16T09:35:59;2.20;;;1.70;;
6376;SDS011;3221;48.858;10.128;2022-10-16T09:38:34;1.70;;;1.60;;
6376;SDS011;3221;48.858;10.128;2022-10-16T09:41:03;2.83;;;1.70;;
6376;SDS011;3221;48.858;10.128;2022-10-16T09:43:54;1.93;;;1.60;;
6376;SDS011;3221;48.858;10.128;2022-10-16T09:46:25;2.00;;;1.83;;
6376;SDS011;3221;48.858;10.128;2022-10-16T09:48:58;3.67;;;1.83;;
6376;SDS011;3221;48.858;10.128;2022-10-16T09:51:33;3.00;;;1.80;;
6376;SDS011;3221;48.858;10.128;2022-10-16T09:54:11;2.10;;;1.80;;
6376;SDS011;3221;48.858;10.128;2022-10-16T09:56:41;2.83;;;1.80;;
6376;SDS011;3221;48.858;10.128;2022-10-16T09:59:10;2.23;;;1.90;;
6376;SDS011;3221;48.858;10.128;2022-10-16T10:04:37;1.80;;;1.70;;
6376;SDS011;3221;48.858;10.128;2022-10-16T10:07:06;1.90;;;1.80;;
6376;SDS011;3221;48.858;10.128;2022-10-16T10:09:45;2.40;;;1.80;;
6376;SDS011;3221;48.858;10.128;2022-10-16T10:12:25;2.43;;;2.00;;
6376;SDS011;3221;48.858;10.128;2022-10-16T10:14:55;2.20;;;1.87;;
6376;SDS011;3221;48.858;10.128;2022-10-16T10:17:25;3.53;;;1.90;;
6376;SDS011;3221;48.858;10.128;2022-10-16T10:19:54;3.77;;;1.83;;
6376;SDS011;3221;48.858;10.128;2022-10-16T10:30:25;2.10;;;1.90;;
6376;SDS011;3221;48.858;10.128;2022-10-16T10:47:13;2.53;;;1.50;;
6376;SDS011;3221;48.858;10.128;2022-10-16T11:00:20;2.10;;;2.00;;
6376;SDS011;3221;48.858;10.128;2022-10-16T11:05:46;2.17;;;1.97;;
6376;SDS011;3221;48.858;10.128;2022-10-16T11:11:25;2.70;;;1.90;;
6376;SDS011;3221;48.858;10.128;2022-10-16T11:19:35;4.50;;;2.17;;
6376;SDS011;3221;48.858;10.128;2022-10-16T11:22:19;4.40;;;1.90;;
6376;SDS011;3221;48.858;10.128;2022-10-16T11:27:59;4.20;;;2.17;;
6376;SDS011;3221;48.858;10.128;2022-10-16T11:30:42;3.70;;;1.90;;
6376;SDS011;3221;48.858;10.128;2022-10-16T11:35:46;6.17;;;1.80;;
6376;SDS011;3221;48.858;10.128;2022-10-16T11:41:34;1.73;;;1.63;;
6376;SDS011;3221;48.858;10.128;2022-10-16T11:50:17;2.90;;;1.77;;
6376;SDS011;3221;48.858;10.128;2022-10-16T11:55:27;3.00;;;1.90;;
6376;SDS011;3221;48.858;10.128;2022-10-16T11:58:01;1.70;;;1.60;;
6376;SDS011;3221;48.858;10.128;2022-10-16T12:00:39;2.13;;;1.60;;
6376;SDS011;3221;48.858;10.128;2022-10-16T12:08:12;1.90;;;1.80;;
6376;SDS011;3221;48.858;10.128;2022-10-16T12:10:45;2.60;;;1.70;;
6376;SDS011;3221;48.858;10.128;2022-10-16T12:13:35;1.77;;;1.67;;
6376;SDS011;3221;48.858;10.128;2022-10-16T12:18:41;2.47;;;1.83;;
6376;SDS011;3221;48.858;10.128;2022-10-16T12:21:13;2.67;;;1.77;;
6376;SDS011;3221;48.858;10.128;2022-10-16T12:23:49;1.53;;;1.43;;
6376;SDS011;3221;48.858;10.128;2022-10-16T12:26:23;2.93;;;1.80;;
6376;SDS011;3221;48.858;10.128;2022-10-16T12:29:12;2.23;;;1.80;;
6376;SDS011;3221;48.858;10.128;2022-10-16T12:31:44;3.20;;;1.50;;
6376;SDS011;3221;48.858;10.128;2022-10-16T12:36:54;2.20;;;2.00;;
6376;SDS011;3221;48.858;10.128;2022-10-16T12:39:23;2.07;;;1.90;;
6376;SDS011;3221;48.858;10.128;2022-10-16T12:42:01;6.03;;;2.30;;
6376;SDS011;3221;48.858;10.128;2022-10-16T12:44:34;3.43;;;2.00;;
6376;SDS011;3221;48.858;10.128;2022-10-16T12:47:03;1.77;;;1.67;;
6376;SDS011;3221;48.858;10.128;2022-10-16T12:49:36;3.80;;;1.90;;
6376;SDS011;3221;48.858;10.128;2022-10-16T12:52:22;1.70;;;1.60;;
6376;SDS011;3221;48.858;10.128;2022-10-16T12:54:52;2.37;;;1.80;;
6376;SDS011;3221;48.858;10.128;2022-10-16T13:00:38;2.10;;;1.90;;
6376;SDS011;3221;48.858;10.128;2022-10-16T13:06:20;3.57;;;1.83;;
6376;SDS011;3221;48.858;10.128;2022-10-16T13:17:53;1.60;;;1.50;;
6376;SDS011;3221;48.858;10.128;2022-10-16T13:26:07;3.63;;;1.70;;
6376;SDS011;3221;48.858;10.128;2022-10-16T13:29:00;2.23;;;1.50;;
6376;SDS011;3221;48.858;10.128;2022-10-16T13:31:28;1.80;;;1.50;;
6376;SDS011;3221;48.858;10.128;2022-10-16T13:33:57;1.53;;;1.40;;
6376;SDS011;3221;48.858;10.128;2022-10-16T13:36:30;3.00;;;1.70;;
6376;SDS011;3221;48.858;10.128;2022-10-16T13:39:15;2.17;;;1.50;;
6376;SDS011;3221;48.858;10.128;2022-10-16T13:44:52;2.30;;;1.40;;
6376;SDS011;3221;48.858;10.128;2022-10-16T13:47:27;2.17;;;1.57;;
6376;SDS011;3221;48.858;10.128;2022-10-16T13:50:09;1.40;;;1.30;;
6376;SDS011;3221;48.858;10.128;2022-10-16T13:52:42;2.40;;;1.40;;
6376;SDS011;3221;48.858;10.128;2022-10-16T13:55:11;3.67;;;1.40;;
6376;SDS011;3221;48.858;10.128;2022-10-16T13:57:40;4.63;;;1.57;;
6376;SDS011;3221;48.858;10.128;2022-10-16T14:00:23;3.33;;;1.37;;
6376;SDS011;3221;48.858;10.128;2022-10-16T14:03:07;1.57;;;1.47;;
6376;SDS011;3221;48.858;10.128;2022-10-16T14:05:45;2.40;;;1.50;;
6376;SDS011;3221;48.858;10.128;2022-10-16T14:08:13;2.30;;;1.50;;
6376;SDS011;3221;48.858;10.128;2022-10-16T14:10:40;1.43;;;1.27;;
6376;SDS011;3221;48.858;10.128;2022-10-16T14:13:07;5.73;;;1.50;;
6376;SDS011;3221;48.858;10.128;2022-10-16T14:15:45;3.07;;;1.40;;
6376;SDS011;3221;48.858;10.128;2022-10-16T14:18:19;2.93;;;1.50;;
6376;SDS011;3221;48.858;10.128;2022-10-16T14:21:02;7.10;;;1.60;;
6376;SDS011;3221;48.858;10.128;2022-10-16T14:23:36;2.07;;;1.27;;
6376;SDS011;3221;48.858;10.128;2022-10-16T14:26:15;2.07;;;1.40;;
6376;SDS011;3221;48.858;10.128;2022-10-16T14:28:45;6.87;;;1.77;;
6376;SDS011;3221;48.858;10.128;2022-10-16T14:31:21;5.40;;;1.53;;
6376;SDS011;3221;48.858;10.128;2022-10-16T14:33:51;3.00;;;1.40;;
6376;SDS011;3221;48.858;10.128;2022-10-16T14:36:19;2.40;;;1.27;;
6376;SDS011;3221;48.858;10.128;2022-10-16T14:39:33;2.57;;;1.40;;
6376;SDS011;3221;48.858;10.128;2022-10-16T14:41:45;1.60;;;1.50;;
6376;SDS011;3221;48.858;10.128;2022-10-16T14:44:14;1.50;;;1.40;;
6376;SDS011;3221;48.858;10.128;2022-10-16T14:46:43;3.77;;;1.30;;
6376;SDS011;3221;48.858;10.128;2022-10-16T14:51:39;4.40;;;1.77;;
6376;SDS011;3221;48.858;10.128;2022-10-16T14:54:15;2.23;;;1.50;;
6376;SDS011;3221;48.858;10.128;2022-10-16T14:57:02;3.60;;;1.80;;
6376;SDS011;3221;48.858;10.128;2022-10-16T14:59:33;4.63;;;1.33;;
6376;SDS011;3221;48.858;10.128;2022-10-16T15:02:13;3.90;;;1.60;;
6376;SDS011;3221;48.858;10.128;2022-10-16T15:04:46;3.20;;;1.40;;
6376;SDS011;3221;48.858;10.128;2022-10-16T15:07:13;4.00;;;1.57;;
6376;SDS011;3221;48.858;10.128;2022-10-16T15:09:41;2.33;;;1.80;;
6376;SDS011;3221;48.858;10.128;2022-10-16T15:12:14;3.17;;;1.40;;
6376;SDS011;3221;48.858;10.128;2022-10-16T15:14:42;1.70;;;1.47;;
6376;SDS011;3221;48.858;10.128;2022-10-16T15:17:10;3.73;;;1.50;;
6376;SDS011;3221;48.858;10.128;2022-10-16T15:19:38;5.17;;;1.60;;
6376;SDS011;3221;48.858;10.128;2022-10-16T15:22:05;6.20;;;1.53;;
6376;SDS011;3221;48.858;10.128;2022-10-16T15:24:32;2.60;;;1.80;;
6376;SDS011;3221;48.858;10.128;2022-10-16T15:26:59;4.03;;;1.70;;
6376;SDS011;3221;48.858;10.128;2022-10-16T15:29:25;4.60;;;1.97;;
6376;SDS011;3221;48.858;10.128;2022-10-16T15:31:52;1.90;;;1.67;;
6376;SDS011;3221;48.858;10.128;2022-10-16T15:34:19;2.17;;;1.90;;
6376;SDS011;3221;48.858;10.128;2022-10-16T15:36:46;3.33;;;1.90;;
6376;SDS011;3221;48.858;10.128;2022-10-16T15:39:17;3.37;;;1.87;;
6376;SDS011;3221;48.858;10.128;2022-10-16T15:41:46;3.60;;;1.93;;
6376;SDS011;3221;48.858;10.128;2022-10-16T15:44:17;2.57;;;1.90;;
6376;SDS011;3221;48.858;10.128;2022-10-16T15:46:45;2.57;;;1.90;;
6376;SDS011;3221;48.858;10.128;2022-10-16T15:49:12;2.33;;;2.03;;
6376;SDS011;3221;48.858;10.128;2022-10-16T15:51:40;3.33;;;1.80;;
6376;SDS011;3221;48.858;10.128;2022-10-16T15:54:08;2.50;;;1.90;;
6376;SDS011;3221;48.858;10.128;2022-10-16T15:56:35;3.10;;;1.90;;
6376;SDS011;3221;48.858;10.128;2022-10-16T15:59:03;5.93;;;2.20;;
6376;SDS011;3221;48.858;10.128;2022-10-16T16:01:32;3.47;;;1.77;;
6376;SDS011;3221;48.858;10.128;2022-10-16T16:04:03;7.63;;;2.00;;
6376;SDS011;3221;48.858;10.128;2022-10-16T16:06:45;2.33;;;1.90;;
6376;SDS011;3221;48.858;10.128;2022-10-16T16:09:13;2.60;;;1.97;;
6376;SDS011;3221;48.858;10.128;2022-10-16T16:11:40;4.50;;;2.03;;
6376;SDS011;3221;48.858;10.128;2022-10-16T16:14:12;5.93;;;2.10;;
6376;SDS011;3221;48.858;10.128;2022-10-16T16:16:40;5.33;;;2.03;;
6376;SDS011;3221;48.858;10.128;2022-10-16T16:19:07;3.63;;;1.73;;
6376;SDS011;3221;48.858;10.128;2022-10-16T16:21:37;3.53;;;2.00;;
6376;SDS011;3221;48.858;10.128;2022-10-16T16:24:05;3.63;;;2.13;;
6376;SDS011;3221;48.858;10.128;2022-10-16T16:26:35;2.40;;;2.03;;
6376;SDS011;3221;48.858;10.128;2022-10-16T16:29:06;3.23;;;1.90;;
6376;SDS011;3221;48.858;10.128;2022-10-16T16:31:33;2.60;;;2.20;;
6376;SDS011;3221;48.858;10.128;2022-10-16T16:34:01;3.00;;;2.10;;
6376;SDS011;3221;48.858;10.128;2022-10-16T16:36:28;4.13;;;2.10;;
6376;SDS011;3221;48.858;10.128;2022-10-16T16:38:55;4.73;;;2.20;;
6376;SDS011;3221;48.858;10.128;2022-10-16T16:41:24;1.90;;;1.80;;
6376;SDS011;3221;48.858;10.128;2022-10-16T16:43:53;4.43;;;2.07;;
6376;SDS011;3221;48.858;10.128;2022-10-16T16:46:21;2.50;;;2.00;;
6376;SDS011;3221;48.858;10.128;2022-10-16T16:48:48;2.63;;;2.10;;
6376;SDS011;3221;48.858;10.128;2022-10-16T16:51:21;3.77;;;2.10;;
6376;SDS011;3221;48.858;10.128;2022-10-16T16:53:49;4.33;;;2.00;;
6376;SDS011;3221;48.858;10.128;2022-10-16T16:56:18;6.20;;;2.07;;
6376;SDS011;3221;48.858;10.128;2022-10-16T16:58:47;3.13;;;2.00;;
6376;SDS011;3221;48.858;10.128;2022-10-16T17:01:14;2.10;;;2.00;;
6376;SDS011;3221;48.858;10.128;2022-10-16T17:03:47;5.07;;;2.20;;
6376;SDS011;3221;48.858;10.128;2022-10-16T17:06:17;3.67;;;2.67;;
6376;SDS011;3221;48.858;10.128;2022-10-16T17:08:46;3.53;;;1.87;;
6376;SDS011;3221;48.858;10.128;2022-10-16T17:11:21;4.13;;;2.27;;
6376;SDS011;3221;48.858;10.128;2022-10-16T17:13:50;4.73;;;2.13;;
6376;SDS011;3221;48.858;10.128;2022-10-16T17:16:23;3.23;;;2.23;;
6376;SDS011;3221;48.858;10.128;2022-10-16T17:18:52;3.90;;;2.40;;
6376;SDS011;3221;48.858;10.128;2022-10-16T17:21:19;3.90;;;2.47;;
6376;SDS011;3221;48.858;10.128;2022-10-16T17:23:46;4.73;;;2.23;;
6376;SDS011;3221;48.858;10.128;2022-10-16T17:26:16;2.60;;;2.13;;
6376;SDS011;3221;48.858;10.128;2022-10-16T17:28:43;3.67;;;2.27;;
6376;SDS011;3221;48.858;10.128;2022-10-16T17:31:12;4.23;;;2.23;;
6376;SDS011;3221;48.858;10.128;2022-10-16T17:33:43;5.53;;;2.40;;
6376;SDS011;3221;48.858;10.128;2022-10-16T17:36:11;4.23;;;2.40;;
6376;SDS011;3221;48.858;10.128;2022-10-16T17:38:40;3.60;;;2.07;;
6376;SDS011;3221;48.858;10.128;2022-10-16T17:41:18;3.83;;;2.30;;